sensor_id;sensor_type;location;lat;lon;timestamp;pressure;altitude;pressure_sealevel;temperature;humidity
16431;BME280;8325;49.284;7.238;2022-11-02T05:01:14;99348.06;;;10.30;87.60
16431;BME280;8325;49.284;7.238;2022-11-02T05:05:27;99359.84;;;10.34;87.32
16431;BME280;8325;49.284;7.238;2022-11-02T05:09:42;99364.59;;;10.39;87.44
16431;BME280;8325;49.284;7.238;2022-11-02T05:13:56;99372.06;;;10.34;88.19
16431;BME280;8325;49.284;7.238;2022-11-02T05:18:08;99369.00;;;10.39;87.72
16431;BME280;8325;49.284;7.238;2022-11-02T05:22:24;99367.78;;;10.51;87.01
16431;BME280;8325;49.284;7.238;2022-11-02T05:26:36;99382.44;;;10.44;87.75
16431;BME280;8325;49.284;7.238;2022-11-02T05:30:49;99389.50;;;10.51;87.33
16431;BME280;8325;49.284;7.238;2022-11-02T05:35:01;99384.06;;;10.45;87.98
16431;BME280;8325;49.284;7.238;2022-11-02T05:39:14;99385.09;;;10.52;87.25
16431;BME280;8325;49.284;7.238;2022-11-02T05:43:26;99387.41;;;10.55;87.21
16431;BME280;8325;49.284;7.238;2022-11-02T05:47:38;99395.84;;;10.49;87.64
16431;BME280;8325;49.284;7.238;2022-11-02T05:51:49;99395.19;;;10.47;87.65
16431;BME280;8325;49.284;7.238;2022-11-02T05:56:03;99392.59;;;10.47;87.23
16431;BME280;8325;49.284;7.238;2022-11-02T06:00:15;99406.09;;;10.42;87.94
16431;BME280;8325;49.284;7.238;2022-11-02T06:04:26;99420.56;;;10.36;87.97
16431;BME280;8325;49.284;7.238;2022-11-02T06:08:38;99414.69;;;10.34;88.20
16431;BME280;8325;49.284;7.238;2022-11-02T06:12:57;99421.25;;;10.39;88.27
16431;BME280;8325;49.284;7.238;2022-11-02T06:17:09;99423.19;;;10.36;88.58
16431;BME280;8325;49.284;7.238;2022-11-02T06:21:20;99428.19;;;10.30;88.72
16431;BME280;8325;49.284;7.238;2022-11-02T06:25:32;99433.91;;;10.33;88.63
16431;BME280;8325;49.284;7.238;2022-11-02T06:29:43;99439.44;;;10.30;88.72
16431;BME280;8325;49.284;7.238;2022-11-02T06:33:55;99438.78;;;10.28;88.74
16431;BME280;8325;49.284;7.238;2022-11-02T06:38:06;99448.81;;;10.23;89.51
16431;BME280;8325;49.284;7.238;2022-11-02T06:42:18;99447.84;;;10.24;89.52
16431;BME280;8325;49.284;7.238;2022-11-02T06:46:29;99459.53;;;10.30;89.29
16431;BME280;8325;49.284;7.238;2022-11-02T06:50:41;99472.56;;;10.30;89.62
16431;BME280;8325;49.284;7.238;2022-11-02T06:54:53;99473.78;;;10.35;89.65
16431;BME280;8325;49.284;7.238;2022-11-02T06:59:04;99485.25;;;10.43;89.46
16431;BME280;8325;49.284;7.238;2022-11-02T07:03:16;99496.00;;;10.40;89.44
16431;BME280;8325;49.284;7.238;2022-11-02T07:07:28;99497.06;;;10.47;89.17
16431;BME280;8325;49.284;7.238;2022-11-02T07:11:40;99503.63;;;10.51;89.35
16431;BME280;8325;49.284;7.238;2022-11-02T07:15:52;99520.41;;;10.48;89.49
16431;BME280;8325;49.284;7.238;2022-11-02T07:20:05;99523.25;;;10.55;89.29
16431;BME280;8325;49.284;7.238;2022-11-02T07:24:16;99519.81;;;10.54;89.67
16431;BME280;8325;49.284;7.238;2022-11-02T07:28:28;99527.56;;;10.64;89.29
16431;BME280;8325;49.284;7.238;2022-11-02T07:32:40;99532.19;;;10.70;88.28
16431;BME280;8325;49.284;7.238;2022-11-02T07:36:54;99535.91;;;10.68;88.33
16431;BME280;8325;49.284;7.238;2022-11-02T07:41:05;99547.19;;;10.68;88.28
16431;BME280;8325;49.284;7.238;2022-11-02T07:45:17;99560.31;;;10.76;88.38
16431;BME280;8325;49.284;7.238;2022-11-02T07:49:28;99555.53;;;10.90;87.74
16431;BME280;8325;49.284;7.238;2022-11-02T07:53:40;99557.59;;;11.04;86.70
16431;BME280;8325;49.284;7.238;2022-11-02T07:57:53;99556.88;;;11.12;86.02
16431;BME280;8325;49.284;7.238;2022-11-02T08:02:07;99569.78;;;11.13;85.88
16431;BME280;8325;49.284;7.238;2022-11-02T08:06:19;99577.63;;;11.13;86.05
16431;BME280;8325;49.284;7.238;2022-11-02T08:10:32;99581.50;;;11.09;86.05
16431;BME280;8325;49.284;7.238;2022-11-02T08:14:50;99592.38;;;11.22;85.47
16431;BME280;8325;49.284;7.238;2022-11-02T08:19:01;99595.31;;;11.19;85.70
16431;BME280;8325;49.284;7.238;2022-11-02T08:23:15;99597.94;;;11.19;85.70
16431;BME280;8325;49.284;7.238;2022-11-02T08:27:27;99598.50;;;11.31;86.16
16431;BME280;8325;49.284;7.238;2022-11-02T08:31:38;99597.41;;;11.42;85.04
16431;BME280;8325;49.284;7.238;2022-11-02T08:35:50;99586.63;;;11.37;85.28
16431;BME280;8325;49.284;7.238;2022-11-02T08:40:02;99596.94;;;11.72;85.51
16431;BME280;8325;49.284;7.238;2022-11-02T08:44:14;99591.41;;;12.10;83.31
16431;BME280;8325;49.284;7.238;2022-11-02T08:48:26;99598.22;;;12.37;81.77
16431;BME280;8325;49.284;7.238;2022-11-02T08:52:38;99595.91;;;12.34;80.57
16431;BME280;8325;49.284;7.238;2022-11-02T08:56:51;99599.34;;;12.34;81.22
16431;BME280;8325;49.284;7.238;2022-11-02T09:01:02;99603.09;;;12.24;80.95
16431;BME280;8325;49.284;7.238;2022-11-02T09:05:14;99607.34;;;12.16;79.99
16431;BME280;8325;49.284;7.238;2022-11-02T09:09:26;99601.00;;;11.93;81.04
16431;BME280;8325;49.284;7.238;2022-11-02T09:13:38;99605.63;;;11.99;81.15
16431;BME280;8325;49.284;7.238;2022-11-02T09:17:50;99603.69;;;12.01;80.55
16431;BME280;8325;49.284;7.238;2022-11-02T09:22:01;99600.22;;;12.01;79.03
16431;BME280;8325;49.284;7.238;2022-11-02T09:26:16;99587.66;;;12.04;77.88
16431;BME280;8325;49.284;7.238;2022-11-02T09:30:28;99605.31;;;12.02;77.80
16431;BME280;8325;49.284;7.238;2022-11-02T09:34:40;99598.94;;;12.05;78.29
16431;BME280;8325;49.284;7.238;2022-11-02T09:38:51;99611.41;;;12.11;77.66
16431;BME280;8325;49.284;7.238;2022-11-02T09:43:18;99604.03;;;12.14;77.05
16431;BME280;8325;49.284;7.238;2022-11-02T09:47:49;99609.91;;;12.08;76.82
16431;BME280;8325;49.284;7.238;2022-11-02T09:52:34;99614.88;;;12.19;75.90
16431;BME280;8325;49.284;7.238;2022-11-02T09:56:55;99610.22;;;12.56;74.90
16431;BME280;8325;49.284;7.238;2022-11-02T10:01:34;99605.34;;;12.77;73.83
16431;BME280;8325;49.284;7.238;2022-11-02T10:05:58;99606.00;;;13.04;71.82
16431;BME280;8325;49.284;7.238;2022-11-02T10:14:36;99595.63;;;13.68;69.31
16431;BME280;8325;49.284;7.238;2022-11-02T10:18:54;99594.09;;;13.81;68.51
16431;BME280;8325;49.284;7.238;2022-11-02T10:27:46;99596.75;;;14.21;66.42
16431;BME280;8325;49.284;7.238;2022-11-02T10:32:07;99577.66;;;14.27;64.49
16431;BME280;8325;49.284;7.238;2022-11-02T10:54:51;99600.13;;;13.26;67.50
16431;BME280;8325;49.284;7.238;2022-11-02T10:59:18;99597.19;;;12.97;67.01
16431;BME280;8325;49.284;7.238;2022-11-02T11:03:30;99596.66;;;12.85;67.86
16431;BME280;8325;49.284;7.238;2022-11-02T11:07:42;99589.44;;;12.71;67.88
16431;BME280;8325;49.284;7.238;2022-11-02T11:12:00;99594.03;;;12.69;68.57
16431;BME280;8325;49.284;7.238;2022-11-02T11:16:30;99592.56;;;12.66;68.00
16431;BME280;8325;49.284;7.238;2022-11-02T11:20:54;99600.06;;;12.61;68.41
16431;BME280;8325;49.284;7.238;2022-11-02T11:29:21;99587.63;;;12.63;69.31
16431;BME280;8325;49.284;7.238;2022-11-02T11:33:46;99581.25;;;12.65;69.72
16431;BME280;8325;49.284;7.238;2022-11-02T11:38:18;99577.78;;;12.65;69.84
16431;BME280;8325;49.284;7.238;2022-11-02T11:42:34;99574.19;;;12.74;68.93
16431;BME280;8325;49.284;7.238;2022-11-02T11:46:53;99568.97;;;12.90;67.90
16431;BME280;8325;49.284;7.238;2022-11-02T11:51:32;99572.06;;;13.19;66.58
16431;BME280;8325;49.284;7.238;2022-11-02T11:55:56;99557.63;;;13.47;66.52
16431;BME280;8325;49.284;7.238;2022-11-02T12:00:25;99562.06;;;13.39;66.71
16431;BME280;8325;49.284;7.238;2022-11-02T12:04:40;99558.63;;;13.22;66.60
16431;BME280;8325;49.284;7.238;2022-11-02T12:09:08;99541.25;;;13.12;67.13
16431;BME280;8325;49.284;7.238;2022-11-02T12:13:51;99539.91;;;13.41;66.14
16431;BME280;8325;49.284;7.238;2022-11-02T12:18:22;99531.97;;;13.66;65.37
16431;BME280;8325;49.284;7.238;2022-11-02T12:23:15;99530.47;;;14.11;62.51
16431;BME280;8325;49.284;7.238;2022-11-02T12:28:03;99529.75;;;14.48;61.53
16431;BME280;8325;49.284;7.238;2022-11-02T12:37:38;99523.13;;;14.98;57.38
16431;BME280;8325;49.284;7.238;2022-11-02T12:42:05;99504.28;;;15.09;56.89
16431;BME280;8325;49.284;7.238;2022-11-02T12:46:39;99510.50;;;14.93;56.33
16431;BME280;8325;49.284;7.238;2022-11-02T12:51:09;99511.72;;;15.06;56.61
16431;BME280;8325;49.284;7.238;2022-11-02T12:55:30;99501.34;;;15.04;55.17
16431;BME280;8325;49.284;7.238;2022-11-02T12:59:51;99502.16;;;15.05;54.58
16431;BME280;8325;49.284;7.238;2022-11-02T13:08:40;99490.19;;;14.87;54.16
16431;BME280;8325;49.284;7.238;2022-11-02T13:12:57;99495.75;;;14.69;54.17
16431;BME280;8325;49.284;7.238;2022-11-02T13:17:17;99499.06;;;14.86;56.56
16431;BME280;8325;49.284;7.238;2022-11-02T13:21:37;99500.16;;;14.92;55.24
16431;BME280;8325;49.284;7.238;2022-11-02T13:26:00;99492.72;;;14.95;54.17
16431;BME280;8325;49.284;7.238;2022-11-02T13:30:14;99489.94;;;14.74;53.32
16431;BME280;8325;49.284;7.238;2022-11-02T13:34:33;99483.72;;;14.75;53.39
16431;BME280;8325;49.284;7.238;2022-11-02T13:38:58;99475.13;;;14.81;54.36
16431;BME280;8325;49.284;7.238;2022-11-02T13:43:32;99474.09;;;14.82;54.12
16431;BME280;8325;49.284;7.238;2022-11-02T13:47:57;99472.09;;;14.69;52.98
16431;BME280;8325;49.284;7.238;2022-11-02T13:52:29;99462.09;;;14.65;53.89
16431;BME280;8325;49.284;7.238;2022-11-02T13:56:46;99462.53;;;14.54;53.48
16431;BME280;8325;49.284;7.238;2022-11-02T14:01:04;99467.09;;;14.60;54.98
16431;BME280;8325;49.284;7.238;2022-11-02T14:05:26;99463.50;;;14.53;54.61
16431;BME280;8325;49.284;7.238;2022-11-02T14:09:41;99461.69;;;14.53;55.69
16431;BME280;8325;49.284;7.238;2022-11-02T14:18:14;99457.59;;;14.50;56.11
16431;BME280;8325;49.284;7.238;2022-11-02T14:22:25;99457.59;;;14.50;55.74
16431;BME280;8325;49.284;7.238;2022-11-02T14:26:55;99456.84;;;14.42;56.30
16431;BME280;8325;49.284;7.238;2022-11-02T14:35:43;99440.41;;;14.40;56.83
16431;BME280;8325;49.284;7.238;2022-11-02T14:49:03;99434.50;;;14.23;58.17
16431;BME280;8325;49.284;7.238;2022-11-02T14:53:23;99442.06;;;14.18;57.99
16431;BME280;8325;49.284;7.238;2022-11-02T14:57:43;99433.88;;;14.13;58.44
16431;BME280;8325;49.284;7.238;2022-11-02T15:02:11;99428.53;;;14.06;58.50
16431;BME280;8325;49.284;7.238;2022-11-02T15:06:27;99418.78;;;13.92;58.51
16431;BME280;8325;49.284;7.238;2022-11-02T15:10:42;99428.63;;;13.90;59.14
16431;BME280;8325;49.284;7.238;2022-11-02T15:14:57;99429.84;;;13.79;59.48
16431;BME280;8325;49.284;7.238;2022-11-02T15:28:18;99408.50;;;13.51;61.12
16431;BME280;8325;49.284;7.238;2022-11-02T15:32:36;99407.91;;;13.41;61.93
16431;BME280;8325;49.284;7.238;2022-11-02T15:36:49;99413.34;;;13.31;61.84
16431;BME280;8325;49.284;7.238;2022-11-02T15:45:35;99404.41;;;13.09;63.08
16431;BME280;8325;49.284;7.238;2022-11-02T16:03:26;99397.28;;;12.62;64.61
16431;BME280;8325;49.284;7.238;2022-11-02T16:07:41;99389.94;;;12.49;65.95
16431;BME280;8325;49.284;7.238;2022-11-02T16:12:23;99382.91;;;12.25;68.24
16431;BME280;8325;49.284;7.238;2022-11-02T16:16:45;99375.88;;;12.01;70.43
16431;BME280;8325;49.284;7.238;2022-11-02T16:20:59;99366.00;;;11.79;72.05
16431;BME280;8325;49.284;7.238;2022-11-02T16:25:20;99362.38;;;11.55;72.72
16431;BME280;8325;49.284;7.238;2022-11-02T16:29:38;99360.19;;;11.34;73.71
16431;BME280;8325;49.284;7.238;2022-11-02T16:33:52;99362.88;;;11.16;74.83
16431;BME280;8325;49.284;7.238;2022-11-02T16:38:04;99368.69;;;10.94;75.58
16431;BME280;8325;49.284;7.238;2022-11-02T16:42:21;99371.41;;;10.84;75.52
16431;BME280;8325;49.284;7.238;2022-11-02T16:46:41;99368.25;;;10.72;76.01
16431;BME280;8325;49.284;7.238;2022-11-02T16:51:21;99367.69;;;10.60;76.54
16431;BME280;8325;49.284;7.238;2022-11-02T16:55:42;99367.78;;;10.51;77.33
16431;BME280;8325;49.284;7.238;2022-11-02T16:59:56;99361.19;;;10.39;77.72
16431;BME280;8325;49.284;7.238;2022-11-02T17:04:21;99362.22;;;10.28;77.93
16431;BME280;8325;49.284;7.238;2022-11-02T17:08:35;99370.44;;;10.15;78.75
16431;BME280;8325;49.284;7.238;2022-11-02T17:12:47;99365.75;;;10.01;78.80
16431;BME280;8325;49.284;7.238;2022-11-02T17:25:29;99371.78;;;9.65;80.49
16431;BME280;8325;49.284;7.238;2022-11-02T17:29:41;99365.88;;;9.63;80.23
16431;BME280;8325;49.284;7.238;2022-11-02T17:33:53;99370.06;;;9.56;81.04
16431;BME280;8325;49.284;7.238;2022-11-02T17:38:07;99370.25;;;9.45;81.45
16431;BME280;8325;49.284;7.238;2022-11-02T17:42:19;99365.09;;;9.35;81.23
16431;BME280;8325;49.284;7.238;2022-11-02T17:46:49;99368.97;;;9.31;81.01
16431;BME280;8325;49.284;7.238;2022-11-02T17:51:01;99384.38;;;9.25;80.75
16431;BME280;8325;49.284;7.238;2022-11-02T17:55:14;99380.31;;;9.12;81.67
16431;BME280;8325;49.284;7.238;2022-11-02T17:59:26;99377.19;;;9.09;82.03
16431;BME280;8325;49.284;7.238;2022-11-02T18:03:38;99376.66;;;9.05;82.49
16431;BME280;8325;49.284;7.238;2022-11-02T18:07:50;99383.13;;;8.91;81.89
16431;BME280;8325;49.284;7.238;2022-11-02T18:12:01;99376.88;;;8.84;82.61
16431;BME280;8325;49.284;7.238;2022-11-02T18:16:13;99370.28;;;8.80;83.03
16431;BME280;8325;49.284;7.238;2022-11-02T18:20:26;99367.31;;;8.75;82.93
16431;BME280;8325;49.284;7.238;2022-11-02T18:24:38;99358.03;;;8.63;83.32
16431;BME280;8325;49.284;7.238;2022-11-02T18:28:49;99354.19;;;8.57;83.42
16431;BME280;8325;49.284;7.238;2022-11-02T18:33:02;99356.38;;;8.52;83.10
16431;BME280;8325;49.284;7.238;2022-11-02T18:37:14;99352.28;;;8.49;84.18
16431;BME280;8325;49.284;7.238;2022-11-02T18:41:25;99348.59;;;8.42;84.80
16431;BME280;8325;49.284;7.238;2022-11-02T18:45:45;99339.44;;;8.38;84.56
16431;BME280;8325;49.284;7.238;2022-11-02T18:49:56;99331.19;;;8.33;84.91
16431;BME280;8325;49.284;7.238;2022-11-02T18:54:08;99326.00;;;8.23;84.89
16431;BME280;8325;49.284;7.238;2022-11-02T18:58:19;99331.78;;;8.17;84.96
16431;BME280;8325;49.284;7.238;2022-11-02T19:02:31;99316.72;;;8.11;85.28
16431;BME280;8325;49.284;7.238;2022-11-02T19:06:43;99325.91;;;8.05;85.03
16431;BME280;8325;49.284;7.238;2022-11-02T19:11:13;99327.81;;;8.03;84.61
16431;BME280;8325;49.284;7.238;2022-11-02T19:15:25;99319.63;;;7.98;84.86
16431;BME280;8325;49.284;7.238;2022-11-02T19:19:37;99316.72;;;8.01;84.98
16431;BME280;8325;49.284;7.238;2022-11-02T19:23:51;99319.47;;;7.90;84.64
16431;BME280;8325;49.284;7.238;2022-11-02T19:28:02;99307.97;;;7.83;85.19
16431;BME280;8325;49.284;7.238;2022-11-02T19:32:15;99300.88;;;7.85;85.09
16431;BME280;8325;49.284;7.238;2022-11-02T19:36:27;99298.81;;;7.79;85.25
16431;BME280;8325;49.284;7.238;2022-11-02T19:40:39;99292.78;;;7.78;85.32
16431;BME280;8325;49.284;7.238;2022-11-02T19:44:50;99292.78;;;7.69;85.65
16431;BME280;8325;49.284;7.238;2022-11-02T19:49:02;99285.25;;;7.66;85.76
16431;BME280;8325;49.284;7.238;2022-11-02T19:53:13;99281.03;;;7.65;86.05
16431;BME280;8325;49.284;7.238;2022-11-02T19:57:25;99275.28;;;7.61;86.25
16431;BME280;8325;49.284;7.238;2022-11-02T20:01:45;99277.63;;;7.54;86.28
16431;BME280;8325;49.284;7.238;2022-11-02T20:06:05;99279.25;;;7.55;85.83
16431;BME280;8325;49.284;7.238;2022-11-02T20:10:17;99280.59;;;7.50;86.07
16431;BME280;8325;49.284;7.238;2022-11-02T20:14:29;99281.97;;;7.44;89.08
16431;BME280;8325;49.284;7.238;2022-11-02T20:18:42;99277.31;;;7.48;88.06
16431;BME280;8325;49.284;7.238;2022-11-02T20:22:54;99278.81;;;7.50;87.60
16431;BME280;8325;49.284;7.238;2022-11-02T20:27:06;99265.44;;;7.45;87.16
16431;BME280;8325;49.284;7.238;2022-11-02T20:31:24;99271.56;;;7.44;87.27
16431;BME280;8325;49.284;7.238;2022-11-02T20:35:36;99278.72;;;7.42;87.11
16431;BME280;8325;49.284;7.238;2022-11-02T20:39:49;99274.06;;;7.36;87.73
16431;BME280;8325;49.284;7.238;2022-11-02T20:44:00;99271.84;;;7.41;87.12
16431;BME280;8325;49.284;7.238;2022-11-02T20:48:12;99267.88;;;7.37;87.34
16431;BME280;8325;49.284;7.238;2022-11-02T20:52:23;99275.53;;;7.29;87.67
16431;BME280;8325;49.284;7.238;2022-11-02T20:56:35;99274.59;;;7.30;87.58
16431;BME280;8325;49.284;7.238;2022-11-02T21:00:47;99265.81;;;7.31;86.89
16431;BME280;8325;49.284;7.238;2022-11-02T21:04:58;99258.69;;;7.23;87.43
16431;BME280;8325;49.284;7.238;2022-11-02T21:09:10;99258.03;;;7.21;87.16
16431;BME280;8325;49.284;7.238;2022-11-02T21:13:22;99257.06;;;7.12;87.42
16431;BME280;8325;49.284;7.238;2022-11-02T21:17:52;99247.47;;;7.13;87.14
16431;BME280;8325;49.284;7.238;2022-11-02T21:22:04;99240.75;;;7.10;87.49
16431;BME280;8325;49.284;7.238;2022-11-02T21:26:16;99244.06;;;7.12;87.35
16431;BME280;8325;49.284;7.238;2022-11-02T21:30:28;99246.13;;;7.09;87.36
16431;BME280;8325;49.284;7.238;2022-11-02T21:34:41;99238.72;;;7.04;87.69
16431;BME280;8325;49.284;7.238;2022-11-02T21:38:52;99242.38;;;7.02;87.29
16431;BME280;8325;49.284;7.238;2022-11-02T21:43:04;99235.97;;;6.96;87.27
16431;BME280;8325;49.284;7.238;2022-11-02T21:47:16;99234.06;;;6.98;88.17
16431;BME280;8325;49.284;7.238;2022-11-02T21:51:28;99228.84;;;6.98;88.84
16431;BME280;8325;49.284;7.238;2022-11-02T21:55:39;99228.47;;;6.93;90.18
16431;BME280;8325;49.284;7.238;2022-11-02T21:59:51;99223.81;;;6.97;89.40
16431;BME280;8325;49.284;7.238;2022-11-02T22:04:22;99220.41;;;6.96;89.09
16431;BME280;8325;49.284;7.238;2022-11-02T22:08:41;99221.88;;;6.99;89.19
16431;BME280;8325;49.284;7.238;2022-11-02T22:12:53;99222.28;;;6.84;89.89
16431;BME280;8325;49.284;7.238;2022-11-02T22:17:23;99209.41;;;6.73;90.81
16431;BME280;8325;49.284;7.238;2022-11-02T22:21:55;99200.53;;;6.85;89.59
16431;BME280;8325;49.284;7.238;2022-11-02T22:26:09;99206.16;;;6.81;89.60
